createdAt,value
2023-04-25T00:01:16.562Z,53.72
2023-04-25T00:04:18.320Z,53.61
2023-04-25T00:07:20.365Z,53.25
2023-04-25T00:10:22.029Z,53.07
2023-04-25T00:13:23.875Z,53.01
2023-04-25T00:16:25.677Z,52.97
2023-04-25T00:19:29.343Z,53.18
2023-04-25T00:22:30.948Z,53.53
2023-04-25T00:25:32.498Z,53.58
2023-04-25T00:28:34.003Z,53.61
2023-04-25T00:31:35.617Z,53.36
2023-04-25T00:34:37.177Z,53.46
2023-04-25T00:37:39.148Z,53.36
2023-04-25T00:40:40.633Z,53.24
2023-04-25T00:43:42.639Z,53.26
2023-04-25T00:46:44.716Z,53.28
2023-04-25T00:49:46.202Z,53.52
2023-04-25T00:52:47.810Z,53.42
2023-04-25T00:55:51.713Z,53.78
2023-04-25T00:58:57.391Z,54.54
2023-04-25T01:01:59.687Z,54.88
2023-04-25T01:05:01.932Z,55.51
2023-04-25T01:08:03.426Z,55.43
2023-04-25T01:11:05.571Z,55.88
2023-04-25T01:14:07.372Z,56.00
2023-04-25T01:17:09.991Z,56.30
2023-04-25T01:20:12.698Z,56.74
2023-04-25T01:23:15.338Z,56.86
2023-04-25T01:26:17.310Z,57.00
2023-04-25T01:29:19.887Z,57.44
2023-04-25T01:32:23.937Z,57.79
2023-04-25T01:35:25.986Z,58.46
2023-04-25T01:38:29.339Z,58.80
2023-04-25T01:41:30.919Z,58.99
2023-04-25T01:44:32.435Z,59.52
2023-04-25T01:47:36.174Z,60.15
2023-04-25T01:50:39.430Z,60.03
2023-04-25T01:53:41.109Z,59.94
2023-04-25T01:56:43.243Z,59.84
2023-04-25T01:59:47.239Z,59.80
2023-04-25T02:03:08.065Z,59.79
2023-04-25T02:06:09.806Z,59.54
2023-04-25T02:09:14.660Z,59.77
2023-04-25T02:12:21.112Z,60.04
2023-04-25T02:15:39.713Z,60.19
2023-04-25T02:18:53.633Z,59.94
2023-04-25T02:21:55.567Z,60.18
2023-04-25T02:24:57.031Z,60.62
2023-04-25T02:27:58.526Z,60.68
2023-04-25T02:30:59.999Z,60.70
2023-04-25T02:34:01.539Z,60.98
2023-04-25T02:37:03.188Z,60.88
2023-04-25T02:40:05.481Z,60.84
2023-04-25T02:43:07.986Z,61.42
2023-04-25T02:46:09.520Z,61.64
2023-04-25T02:49:11.037Z,62.30
2023-04-25T02:52:13.228Z,62.18
2023-04-25T02:55:15.432Z,61.89
2023-04-25T02:58:18.605Z,61.94
2023-04-25T03:01:23.815Z,61.74
2023-04-25T03:04:25.772Z,62.10
2023-04-25T03:07:27.351Z,61.78
2023-04-25T03:10:28.855Z,61.80
2023-04-25T03:13:33.929Z,61.65
2023-04-25T03:16:35.518Z,62.03
2023-04-25T03:19:37.023Z,62.32
2023-04-25T03:22:38.795Z,62.07
2023-04-25T03:25:40.249Z,62.20
2023-04-25T03:28:42.928Z,62.75
2023-04-25T03:31:44.502Z,62.29
2023-04-25T03:34:46.240Z,62.41
2023-04-25T03:37:47.838Z,62.75
2023-04-25T03:40:55.095Z,62.89
2023-04-25T03:44:07.573Z,62.55
2023-04-25T03:47:09.107Z,62.75
2023-04-25T03:50:11.228Z,63.16
2023-04-25T03:53:12.751Z,63.28
2023-04-25T03:56:32.705Z,62.49
2023-04-25T03:59:41.618Z,63.50
2023-04-25T04:02:46.195Z,63.44
2023-04-25T04:05:48.486Z,63.94
2023-04-25T04:08:50.066Z,63.81
2023-04-25T04:11:51.919Z,64.12
2023-04-25T04:14:53.368Z,64.45
2023-04-25T04:17:55.778Z,64.14
2023-04-25T04:20:59.032Z,64.53
2023-04-25T04:24:02.821Z,64.13
2023-04-25T04:27:08.526Z,64.90
2023-04-25T04:30:30.494Z,64.17
2023-04-25T04:33:33.983Z,64.18
2023-04-25T04:36:38.313Z,64.17
2023-04-25T04:39:39.884Z,64.01
2023-04-25T04:42:59.180Z,63.60
2023-04-25T04:46:13.668Z,63.41
2023-04-25T04:49:50.954Z,63.63
2023-04-25T04:53:05.664Z,63.32
2023-04-25T04:56:26.266Z,63.02
2023-04-25T04:59:43.442Z,63.12
2023-04-25T05:03:14.150Z,62.85
2023-04-25T05:06:39.804Z,62.83
2023-04-25T05:09:53.889Z,62.56
2023-04-25T05:13:14.989Z,62.23
2023-04-25T05:16:28.326Z,62.20
2023-04-25T05:19:49.621Z,61.89
2023-04-25T05:23:13.983Z,62.35
2023-04-25T05:26:18.163Z,62.75
2023-04-25T05:29:27.886Z,62.29
2023-04-25T05:32:41.449Z,62.54
2023-04-25T05:35:43.410Z,62.54
2023-04-25T05:38:46.468Z,63.66
2023-04-25T05:41:56.737Z,64.02
2023-04-25T05:45:18.994Z,65.04
2023-04-25T05:48:29.532Z,65.01
2023-04-25T05:51:40.470Z,65.44
2023-04-25T05:55:03.208Z,65.45
2023-04-25T05:58:08.001Z,65.46
2023-04-25T06:01:16.005Z,66.03
2023-04-25T06:04:18.413Z,65.58
2023-04-25T06:07:21.188Z,65.36
2023-04-25T06:10:23.680Z,65.32
2023-04-25T06:13:25.440Z,65.46
2023-04-25T06:16:27.216Z,65.45
2023-04-25T06:19:29.177Z,66.53
2023-04-25T06:22:30.691Z,66.31
2023-04-25T06:25:32.182Z,66.26
2023-04-25T06:28:34.855Z,66.24
2023-04-25T06:31:36.493Z,65.59
2023-04-25T06:34:38.173Z,64.82
2023-04-25T06:37:41.562Z,65.47
2023-04-25T06:40:43.228Z,65.08
2023-04-25T06:43:45.612Z,65.57
2023-04-25T06:46:59.071Z,65.82
2023-04-25T06:50:00.762Z,65.65
2023-04-25T06:53:03.103Z,66.29
2023-04-25T06:56:06.251Z,66.33
2023-04-25T06:59:26.839Z,65.88
2023-04-25T07:02:28.493Z,65.62
2023-04-25T07:05:30.249Z,66.32
2023-04-25T07:08:32.452Z,66.37
2023-04-25T07:11:34.431Z,66.28
2023-04-25T07:14:35.997Z,66.42
2023-04-25T07:17:37.729Z,67.31
2023-04-25T07:20:39.392Z,67.79
2023-04-25T07:23:42.083Z,68.31
2023-04-25T07:26:48.788Z,68.38
2023-04-25T07:30:07.341Z,68.27
2023-04-25T07:33:08.913Z,68.95
2023-04-25T07:36:10.348Z,68.97
2023-04-25T07:39:11.860Z,69.56
2023-04-25T07:42:14.161Z,69.62
2023-04-25T07:45:18.575Z,68.54
2023-04-25T07:48:20.730Z,69.17
2023-04-25T07:51:23.400Z,69.04
2023-04-25T07:54:27.299Z,69.95
2023-04-25T07:57:34.923Z,70.16
2023-04-25T08:00:37.539Z,69.86
2023-04-25T08:03:58.419Z,70.38
2023-04-25T08:07:17.193Z,69.82
2023-04-25T08:10:26.675Z,69.64
2023-04-25T08:13:28.408Z,69.21
2023-04-25T08:16:31.904Z,69.08
2023-04-25T08:19:33.769Z,67.79
2023-04-25T08:22:36.516Z,68.00
2023-04-25T08:25:57.975Z,67.63
2023-04-25T08:29:02.577Z,67.38
2023-04-25T08:32:04.219Z,67.38
2023-04-25T08:35:07.662Z,67.11
2023-04-25T08:38:09.342Z,67.54
2023-04-25T08:41:12.764Z,67.99
2023-04-25T08:44:14.335Z,67.48
2023-04-25T08:47:15.998Z,67.81
2023-04-25T08:50:23.759Z,67.71
2023-04-25T08:53:28.452Z,68.47
2023-04-25T08:56:35.428Z,67.57
2023-04-25T08:59:40.394Z,67.34
2023-04-25T09:02:43.425Z,68.32
2023-04-25T09:05:45.658Z,67.52
2023-04-25T09:08:51.094Z,67.33
2023-04-25T09:11:55.188Z,67.46
2023-04-25T09:15:10.165Z,67.80
2023-04-25T09:18:33.700Z,67.14
2023-04-25T09:21:36.456Z,66.91
2023-04-25T09:24:38.030Z,66.87
2023-04-25T09:27:53.207Z,67.00
2023-04-25T09:31:00.451Z,63.63
2023-04-25T09:34:07.917Z,61.68
2023-04-25T09:37:21.401Z,61.35
2023-04-25T09:40:43.075Z,61.00
2023-04-25T09:43:57.992Z,60.99
2023-04-25T09:47:03.821Z,61.13
2023-04-25T09:50:17.852Z,61.04
2023-04-25T09:53:22.873Z,60.13
2023-04-25T09:56:39.374Z,59.60
2023-04-25T09:59:46.697Z,60.10
2023-04-25T10:02:49.770Z,59.50
2023-04-25T10:06:28.487Z,59.17
2023-04-25T10:09:33.240Z,58.63
2023-04-25T10:12:35.215Z,58.83
2023-04-25T10:15:40.330Z,58.45
2023-04-25T10:18:42.046Z,57.96
2023-04-25T10:21:53.509Z,58.22
2023-04-25T10:24:57.356Z,57.62
2023-04-25T10:28:00.850Z,57.79
2023-04-25T10:31:08.620Z,57.98
2023-04-25T10:34:10.589Z,57.89
2023-04-25T10:37:14.392Z,57.77
2023-04-25T10:40:22.934Z,58.28
2023-04-25T10:43:39.632Z,58.92
2023-04-25T10:46:41.478Z,60.06
2023-04-25T10:49:43.698Z,60.36
2023-04-25T10:52:45.550Z,60.03
2023-04-25T10:55:54.140Z,59.73
2023-04-25T10:59:07.445Z,59.77
2023-04-25T11:02:14.296Z,59.49
2023-04-25T11:05:43.991Z,58.15
2023-04-25T11:08:56.815Z,55.69
2023-04-25T11:11:59.653Z,55.40
2023-04-25T11:15:05.897Z,55.63
2023-04-25T11:18:09.739Z,52.29
2023-04-25T11:21:12.835Z,50.86
2023-04-25T11:24:14.387Z,50.47
2023-04-25T11:27:15.884Z,50.05
2023-04-25T11:30:17.880Z,50.42
2023-04-25T11:33:24.480Z,49.88
2023-04-25T11:36:27.011Z,50.46
2023-04-25T11:39:29.383Z,50.07
2023-04-25T11:42:34.170Z,49.59
2023-04-25T11:45:38.071Z,48.98
2023-04-25T11:48:43.704Z,49.25
2023-04-25T11:51:47.484Z,49.10
2023-04-25T11:54:49.081Z,49.04
2023-04-25T11:57:51.404Z,50.07
2023-04-25T12:00:53.087Z,52.75
2023-04-25T12:03:54.902Z,52.97
2023-04-25T12:06:56.633Z,53.94
2023-04-25T12:09:58.220Z,55.09
2023-04-25T12:12:59.715Z,56.77
2023-04-25T12:16:01.440Z,57.94
2023-04-25T12:19:03.632Z,58.49
2023-04-25T12:22:21.120Z,59.88
2023-04-25T12:25:43.023Z,60.01
2023-04-25T12:28:48.170Z,55.77
2023-04-25T12:31:51.095Z,55.00
2023-04-25T12:34:52.931Z,53.91
2023-04-25T12:37:54.418Z,54.17
2023-04-25T12:40:56.154Z,53.55
2023-04-25T12:43:57.805Z,54.33
2023-04-25T12:47:00.842Z,52.98
2023-04-25T12:50:02.587Z,52.46
2023-04-25T12:53:04.216Z,51.78
2023-04-25T12:56:06.531Z,51.67
2023-04-25T12:59:07.995Z,51.04
2023-04-25T13:02:09.606Z,51.45
2023-04-25T13:05:12.126Z,51.21
2023-04-25T13:08:13.683Z,49.82
2023-04-25T13:11:18.249Z,49.71
2023-04-25T13:14:19.750Z,49.29
2023-04-25T13:17:21.338Z,48.03
2023-04-25T13:20:23.451Z,48.19
2023-04-25T13:23:27.507Z,47.33
2023-04-25T13:26:29.016Z,46.16
2023-04-25T13:29:30.494Z,48.07
2023-04-25T13:32:32.016Z,49.29
2023-04-25T13:35:35.610Z,48.94
2023-04-25T13:38:37.221Z,50.19
2023-04-25T13:41:38.695Z,50.77
2023-04-25T13:44:40.301Z,52.40
2023-04-25T13:47:41.790Z,54.24
2023-04-25T13:50:43.369Z,55.26
2023-04-25T13:53:46.337Z,55.78
2023-04-25T13:56:47.901Z,55.71
2023-04-25T13:59:49.434Z,55.41
2023-04-25T14:02:51.403Z,55.29
2023-04-25T14:05:53.010Z,55.03
2023-04-25T14:08:55.358Z,54.44
2023-04-25T14:11:57.516Z,47.92
2023-04-25T14:14:59.071Z,45.52
2023-04-25T14:18:01.345Z,45.34
2023-04-25T14:21:02.972Z,44.47
2023-04-25T14:24:06.785Z,44.54
2023-04-25T14:27:08.652Z,43.39
2023-04-25T14:30:10.789Z,44.72
2023-04-25T14:33:12.562Z,43.55
2023-04-25T14:36:15.198Z,46.48
2023-04-25T14:39:17.537Z,46.18
2023-04-25T14:42:19.068Z,46.55
2023-04-25T14:45:20.748Z,48.90
2023-04-25T14:48:22.384Z,50.99
2023-04-25T14:51:24.062Z,52.45
2023-04-25T14:54:26.494Z,53.04
2023-04-25T14:57:28.205Z,53.10
2023-04-25T15:00:31.351Z,53.61
2023-04-25T15:03:33.557Z,52.47
2023-04-25T15:06:35.184Z,52.79
2023-04-25T15:09:36.682Z,52.71
2023-04-25T15:12:38.619Z,53.06
2023-04-25T15:15:40.392Z,53.22
2023-04-25T15:18:41.996Z,52.86
2023-04-25T15:21:43.537Z,54.52
2023-04-25T15:24:45.070Z,55.63
2023-04-25T15:27:49.169Z,56.23
2023-04-25T15:30:51.525Z,55.85
2023-04-25T15:33:53.102Z,56.52
2023-04-25T15:36:54.752Z,56.45
2023-04-25T15:40:11.742Z,56.47
2023-04-25T15:43:15.967Z,56.65
2023-04-25T15:46:17.798Z,56.42
2023-04-25T15:49:21.568Z,56.30
2023-04-25T15:52:23.042Z,56.21
2023-04-25T15:55:26.880Z,56.31
2023-04-25T15:58:28.425Z,56.47
2023-04-25T16:01:31.227Z,57.35
2023-04-25T16:04:35.595Z,57.90
2023-04-25T16:07:38.174Z,58.27
2023-04-25T16:10:39.766Z,58.06
2023-04-25T16:13:41.507Z,58.09
2023-04-25T16:16:44.751Z,58.62
2023-04-25T16:19:46.388Z,58.74
2023-04-25T16:22:48.012Z,58.69
2023-04-25T16:25:50.734Z,59.02
2023-04-25T16:28:52.570Z,58.42
2023-04-25T16:31:54.203Z,58.62
2023-04-25T16:34:57.497Z,58.70
2023-04-25T16:38:01.025Z,58.62
2023-04-25T16:41:02.725Z,58.92
2023-04-25T16:44:06.701Z,58.93
2023-04-25T16:47:08.330Z,58.96
2023-04-25T16:50:10.153Z,59.12
2023-04-25T16:53:11.983Z,59.18
2023-04-25T16:56:13.507Z,59.13
2023-04-25T16:59:14.936Z,59.09
2023-04-25T17:02:17.171Z,58.95
2023-04-25T17:05:18.832Z,58.60
2023-04-25T17:08:20.351Z,58.23
2023-04-25T17:11:21.892Z,58.43
2023-04-25T17:14:23.424Z,58.66
2023-04-25T17:17:26.571Z,59.08
2023-04-25T17:20:28.105Z,59.49
2023-04-25T17:23:32.297Z,60.01
2023-04-25T17:26:33.750Z,61.13
2023-04-25T17:29:35.621Z,60.79
2023-04-25T17:32:37.166Z,61.18
2023-04-25T17:35:38.729Z,62.07
2023-04-25T17:38:40.394Z,63.16
2023-04-25T17:41:41.875Z,63.09
2023-04-25T17:44:43.396Z,63.32
2023-04-25T17:47:45.346Z,63.66
2023-04-25T17:50:46.899Z,64.50
2023-04-25T17:53:48.486Z,65.31
2023-04-25T17:56:50.800Z,65.33
2023-04-25T17:59:53.466Z,65.17
2023-04-25T18:02:55.136Z,65.98
2023-04-25T18:05:56.703Z,66.21
2023-04-25T18:08:58.629Z,66.71
2023-04-25T18:12:01.274Z,66.15
2023-04-25T18:15:06.772Z,66.22
2023-04-25T18:18:15.108Z,66.03
2023-04-25T18:21:16.876Z,66.28
2023-04-25T18:24:18.526Z,66.98
2023-04-25T18:27:20.431Z,66.87
2023-04-25T18:30:22.026Z,67.01
2023-04-25T18:33:23.616Z,67.12
2023-04-25T18:36:25.106Z,66.61
2023-04-25T18:39:27.098Z,66.61
2023-04-25T18:42:29.003Z,66.92
2023-04-25T18:45:30.608Z,67.37
2023-04-25T18:48:32.085Z,67.52
2023-04-25T18:51:33.660Z,67.95
2023-04-25T18:54:35.178Z,67.62
2023-04-25T18:57:37.978Z,67.92
2023-04-25T19:00:40.020Z,67.80
2023-04-25T19:03:41.933Z,67.86
2023-04-25T19:06:49.247Z,68.00
2023-04-25T19:09:50.770Z,68.16
2023-04-25T19:12:52.625Z,67.68
2023-04-25T19:15:54.297Z,67.92
2023-04-25T19:18:56.806Z,68.05
2023-04-25T19:21:58.910Z,67.84
2023-04-25T19:25:10.072Z,68.12
2023-04-25T19:28:12.888Z,67.88
2023-04-25T19:31:14.479Z,67.95
2023-04-25T19:34:16.155Z,68.76
2023-04-25T19:37:17.663Z,69.02
2023-04-25T19:40:21.136Z,68.77
2023-04-25T19:43:22.637Z,68.42
2023-04-25T19:46:24.856Z,68.89
2023-04-25T19:49:27.095Z,68.71
2023-04-25T19:52:28.652Z,69.05
2023-04-25T19:55:30.156Z,69.71
2023-04-25T19:58:32.216Z,69.62
2023-04-25T20:01:33.826Z,69.72
2023-04-25T20:04:35.329Z,70.25
2023-04-25T20:07:36.974Z,69.95
2023-04-25T20:10:38.489Z,70.56
2023-04-25T20:13:40.029Z,70.08
2023-04-25T20:16:41.800Z,70.35
2023-04-25T20:19:43.540Z,70.60
2023-04-25T20:22:45.135Z,70.10
2023-04-25T20:25:46.731Z,70.61
2023-04-25T20:28:48.243Z,70.52
2023-04-25T20:31:50.882Z,70.32
2023-04-25T20:34:52.464Z,70.37
2023-04-25T20:37:54.015Z,70.30
2023-04-25T20:40:56.504Z,70.58
2023-04-25T20:43:58.186Z,70.35
2023-04-25T20:46:59.988Z,70.52
2023-04-25T20:50:03.801Z,70.13
2023-04-25T20:53:05.674Z,70.39
2023-04-25T20:56:07.202Z,70.17
2023-04-25T20:59:09.168Z,70.67
2023-04-25T21:02:12.388Z,70.49
2023-04-25T21:05:14.059Z,70.63
2023-04-25T21:08:15.984Z,70.71
2023-04-25T21:11:19.413Z,70.09
2023-04-25T21:14:21.542Z,70.78
2023-04-25T21:17:23.127Z,71.04
2023-04-25T21:20:24.619Z,70.73
2023-04-25T21:23:26.068Z,69.77
2023-04-25T21:26:27.636Z,69.72
2023-04-25T21:29:29.121Z,68.22
2023-04-25T21:32:30.624Z,67.83
2023-04-25T21:35:32.229Z,68.17
2023-04-25T21:38:33.809Z,68.20
2023-04-25T21:41:37.439Z,67.80
2023-04-25T21:44:39.930Z,68.33
2023-04-25T21:47:41.984Z,68.69
2023-04-25T21:50:43.565Z,68.58
2023-04-25T21:53:47.598Z,69.01
2023-04-25T21:56:49.589Z,69.93
2023-04-25T21:59:51.142Z,70.92
2023-04-25T22:02:56.091Z,70.92
2023-04-25T22:05:58.848Z,70.78
2023-04-25T22:09:00.325Z,70.65
2023-04-25T22:12:03.533Z,70.47
2023-04-25T22:15:05.630Z,70.49
2023-04-25T22:18:08.052Z,71.00
2023-04-25T22:21:10.151Z,70.84
2023-04-25T22:24:11.669Z,71.05
2023-04-25T22:27:13.135Z,71.11
2023-04-25T22:30:14.849Z,71.22
2023-04-25T22:33:17.668Z,71.48
2023-04-25T22:36:19.564Z,71.27
2023-04-25T22:39:21.089Z,71.32
2023-04-25T22:42:22.614Z,71.53
2023-04-25T22:45:24.504Z,71.33
2023-04-25T22:48:26.005Z,71.34
2023-04-25T22:51:27.443Z,71.87
2023-04-25T22:54:28.896Z,71.75
2023-04-25T22:57:31.308Z,72.02
2023-04-25T23:00:34.392Z,72.62
2023-04-25T23:03:36.379Z,73.08
2023-04-25T23:06:38.631Z,72.91
2023-04-25T23:09:41.744Z,72.81
2023-04-25T23:12:43.864Z,72.20
2023-04-25T23:15:45.320Z,72.32
2023-04-25T23:18:47.005Z,71.58
2023-04-25T23:21:48.888Z,71.90
2023-04-25T23:24:51.126Z,71.69
2023-04-25T23:27:52.980Z,71.74
2023-04-25T23:30:54.517Z,71.21
2023-04-25T23:33:56.052Z,71.44
2023-04-25T23:36:58.080Z,71.57
2023-04-25T23:39:59.854Z,71.74
2023-04-25T23:43:02.386Z,71.14
2023-04-25T23:46:04.278Z,71.64
2023-04-25T23:49:05.738Z,71.28
2023-04-25T23:52:07.189Z,70.88
2023-04-25T23:55:09.824Z,70.63
2023-04-25T23:58:11.430Z,71.10
